createdAt,value
2018-12-14T00:01:09.030Z,137.30
2018-12-14T00:03:16.079Z,137.07
2018-12-14T00:05:23.094Z,137.67
2018-12-14T00:07:30.196Z,137.83
2018-12-14T00:09:37.249Z,144.77
2018-12-14T00:11:45.622Z,138.10
2018-12-14T00:13:52.989Z,143.80
2018-12-14T00:16:00.198Z,137.83
2018-12-14T00:18:07.264Z,130.37
2018-12-14T00:20:14.300Z,127.87
2018-12-14T00:22:21.318Z,121.10
2018-12-14T00:24:28.465Z,122.93
2018-12-14T00:26:35.529Z,120.23
2018-12-14T00:28:42.750Z,121.97
2018-12-14T00:30:49.629Z,117.60
2018-12-14T00:32:56.510Z,129.30
2018-12-14T00:35:04.084Z,132.53
2018-12-14T00:37:11.317Z,138.00
2018-12-14T00:41:40.175Z,121.40
2018-12-14T00:43:47.163Z,136.67
2018-12-14T00:45:54.200Z,130.10
2018-12-14T00:48:01.154Z,134.07
2018-12-14T00:50:09.292Z,134.57
2018-12-14T00:52:16.199Z,138.93
2018-12-14T00:54:23.437Z,128.33
2018-12-14T00:56:30.660Z,134.83
2018-12-14T00:58:37.880Z,134.20
2018-12-14T01:00:44.641Z,136.70
2018-12-14T01:02:51.754Z,136.80
2018-12-14T01:04:59.212Z,134.00
2018-12-14T01:07:06.449Z,131.30
2018-12-14T01:09:13.447Z,124.10
2018-12-14T01:11:21.512Z,123.53
2018-12-14T01:13:28.589Z,138.43
2018-12-14T01:15:36.094Z,134.17
2018-12-14T01:17:43.322Z,133.90
2018-12-14T01:19:51.025Z,124.27
2018-12-14T01:21:58.484Z,124.17
2018-12-14T01:24:05.614Z,124.13
2018-12-14T01:26:12.585Z,130.37
2018-12-14T01:28:19.862Z,126.60
2018-12-14T01:30:26.825Z,117.40
2018-12-14T01:32:33.891Z,115.20
2018-12-14T01:34:40.920Z,121.80
2018-12-14T01:36:47.775Z,122.17
2018-12-14T01:38:54.877Z,120.40
2018-12-14T01:41:02.128Z,130.87
2018-12-14T01:43:09.242Z,118.47
2018-12-14T01:45:16.328Z,121.97
2018-12-14T01:47:23.675Z,125.63
2018-12-14T01:49:30.560Z,124.73
2018-12-14T01:51:38.145Z,120.30
2018-12-14T01:53:45.432Z,124.70
2018-12-14T01:55:52.434Z,132.67
2018-12-14T01:58:00.094Z,122.93
2018-12-14T02:00:07.742Z,129.13
2018-12-14T02:02:15.993Z,134.03
2018-12-14T02:04:22.916Z,137.87
2018-12-14T02:06:29.926Z,140.20
2018-12-14T02:08:36.974Z,137.80
2018-12-14T02:10:43.789Z,135.10
2018-12-14T02:12:50.552Z,139.90
2018-12-14T02:14:57.486Z,138.53
2018-12-14T02:17:04.353Z,143.87
2018-12-14T02:19:11.490Z,140.87
2018-12-14T02:21:18.512Z,142.10
2018-12-14T02:23:25.730Z,143.73
2018-12-14T02:25:32.453Z,141.73
2018-12-14T02:27:39.288Z,134.77
2018-12-14T02:29:46.655Z,135.53
2018-12-14T02:31:54.169Z,130.23
2018-12-14T02:34:01.156Z,130.03
2018-12-14T02:36:08.245Z,127.33
2018-12-14T02:38:15.289Z,128.20
2018-12-14T02:40:22.907Z,122.33
2018-12-14T02:42:29.510Z,128.60
2018-12-14T02:44:37.574Z,133.67
2018-12-14T02:46:44.399Z,135.67
2018-12-14T02:48:51.349Z,137.70
2018-12-14T02:50:58.903Z,138.00
2018-12-14T02:53:05.966Z,139.43
2018-12-14T02:55:12.814Z,141.67
2018-12-14T02:57:19.976Z,143.00
2018-12-14T02:59:26.899Z,145.17
2018-12-14T03:01:33.896Z,144.33
2018-12-14T03:03:41.208Z,146.07
2018-12-14T03:05:48.010Z,146.13
2018-12-14T03:07:54.817Z,148.73
2018-12-14T03:10:01.659Z,150.17
2018-12-14T03:12:08.642Z,152.50
2018-12-14T03:14:15.360Z,146.60
2018-12-14T03:16:22.633Z,148.13
2018-12-14T03:18:29.325Z,149.23
2018-12-14T03:20:36.382Z,152.60
2018-12-14T03:22:43.250Z,151.90
2018-12-14T03:24:50.259Z,153.23
2018-12-14T03:26:57.011Z,146.60
2018-12-14T03:29:03.765Z,142.83
2018-12-14T03:31:10.416Z,146.30
2018-12-14T03:33:17.916Z,139.37
2018-12-14T03:35:24.821Z,137.47
2018-12-14T03:37:31.799Z,136.50
2018-12-14T03:39:38.510Z,138.37
2018-12-14T03:41:45.600Z,136.27
2018-12-14T03:43:52.921Z,149.43
2018-12-14T03:45:59.788Z,141.20
2018-12-14T03:48:06.635Z,147.10
2018-12-14T03:50:13.523Z,150.70
2018-12-14T03:52:20.610Z,150.63
2018-12-14T03:54:26.967Z,153.03
2018-12-14T03:56:33.877Z,151.73
2018-12-14T03:58:41.577Z,153.93
2018-12-14T04:00:48.951Z,151.20
2018-12-14T04:02:55.930Z,150.97
2018-12-14T04:05:02.969Z,157.90
2018-12-14T04:07:10.614Z,149.90
2018-12-14T04:09:17.601Z,153.27
2018-12-14T04:11:24.472Z,153.07
2018-12-14T04:13:31.397Z,145.97
2018-12-14T04:15:38.386Z,147.33
2018-12-14T04:17:45.527Z,152.53
2018-12-14T04:19:52.490Z,157.30
2018-12-14T04:21:59.392Z,157.83
2018-12-14T04:24:06.307Z,157.20
2018-12-14T04:26:13.501Z,156.00
2018-12-14T04:28:21.022Z,157.70
2018-12-14T04:30:27.821Z,165.47
2018-12-14T04:32:34.529Z,149.20
2018-12-14T04:34:41.379Z,152.70
2018-12-14T04:36:48.714Z,145.57
2018-12-14T04:38:55.404Z,145.93
2018-12-14T04:41:02.437Z,140.20
2018-12-14T04:43:09.326Z,143.77
2018-12-14T04:45:16.309Z,141.53
2018-12-14T04:47:23.492Z,148.20
2018-12-14T04:49:30.665Z,150.63
2018-12-14T04:51:37.154Z,143.87
2018-12-14T04:53:43.838Z,152.57
2018-12-14T04:55:50.494Z,158.07
2018-12-14T04:57:57.401Z,145.47
2018-12-14T05:00:04.190Z,134.50
2018-12-14T05:02:11.063Z,133.37
2018-12-14T05:04:17.926Z,124.50
2018-12-14T05:06:24.925Z,111.93
2018-12-14T05:08:31.871Z,111.83
2018-12-14T05:10:38.663Z,102.10
2018-12-14T05:12:46.304Z,114.80
2018-12-14T05:14:53.215Z,125.93
2018-12-14T05:17:00.290Z,129.43
2018-12-14T05:19:06.906Z,129.33
2018-12-14T05:21:14.187Z,126.77
2018-12-14T05:23:21.483Z,123.67
2018-12-14T05:25:28.326Z,131.00
2018-12-14T05:27:35.296Z,131.73
2018-12-14T05:29:42.299Z,137.40
2018-12-14T05:31:49.241Z,137.30
2018-12-14T05:33:56.432Z,139.20
2018-12-14T05:36:03.314Z,143.13
2018-12-14T05:38:10.754Z,147.73
2018-12-14T05:40:17.502Z,147.17
2018-12-14T05:42:24.349Z,144.93
2018-12-14T05:44:31.391Z,145.87
2018-12-14T05:46:38.476Z,151.80
2018-12-14T05:48:45.369Z,152.40
2018-12-14T05:50:52.039Z,149.30
2018-12-14T05:53:00.209Z,154.83
2018-12-14T05:55:07.405Z,156.90
2018-12-14T05:57:14.073Z,143.67
2018-12-14T05:59:21.075Z,138.97
2018-12-14T06:01:27.778Z,143.60
2018-12-14T06:03:34.502Z,136.60
2018-12-14T06:05:42.025Z,131.53
2018-12-14T06:07:49.322Z,128.37
2018-12-14T06:09:56.170Z,134.10
2018-12-14T06:12:03.690Z,132.37
2018-12-14T06:14:10.634Z,142.27
2018-12-14T06:16:17.442Z,137.80
2018-12-14T06:18:24.451Z,139.70
2018-12-14T06:20:31.358Z,140.53
2018-12-14T06:22:38.222Z,129.73
2018-12-14T06:24:45.002Z,125.40
2018-12-14T06:26:52.155Z,117.47
2018-12-14T06:28:58.956Z,113.70
2018-12-14T06:31:06.231Z,114.80
2018-12-14T06:33:12.909Z,123.20
2018-12-14T06:35:19.858Z,129.27
2018-12-14T06:37:27.009Z,132.77
2018-12-14T06:39:34.016Z,126.83
2018-12-14T06:41:40.811Z,134.57
2018-12-14T06:43:47.825Z,133.47
2018-12-14T06:45:54.674Z,137.33
2018-12-14T06:48:01.634Z,139.30
2018-12-14T06:50:08.809Z,138.93
2018-12-14T06:52:16.235Z,145.43
2018-12-14T06:54:23.192Z,146.30
2018-12-14T06:56:30.116Z,146.63
2018-12-14T06:58:36.939Z,149.47
2018-12-14T07:00:43.637Z,150.37
2018-12-14T07:02:50.487Z,147.93
2018-12-14T07:04:57.236Z,151.87
2018-12-14T07:07:04.361Z,151.10
2018-12-14T07:09:11.188Z,149.93
2018-12-14T07:11:17.963Z,147.27
2018-12-14T07:13:25.118Z,148.53
2018-12-14T07:15:32.134Z,156.53
2018-12-14T07:17:38.946Z,140.23
2018-12-14T07:19:45.886Z,134.30
2018-12-14T07:21:52.710Z,134.17
2018-12-14T07:23:59.720Z,134.53
2018-12-14T07:26:06.669Z,133.17
2018-12-14T07:28:13.769Z,126.67
2018-12-14T07:30:21.047Z,129.87
2018-12-14T07:32:27.779Z,145.03
2018-12-14T07:34:34.601Z,138.00
2018-12-14T07:36:41.710Z,134.43
2018-12-14T07:38:48.478Z,137.70
2018-12-14T07:40:55.185Z,130.80
2018-12-14T07:43:01.921Z,117.47
2018-12-14T07:45:09.201Z,120.97
2018-12-14T07:47:15.966Z,108.40
2018-12-14T07:49:23.566Z,110.80
2018-12-14T07:51:30.661Z,112.37
2018-12-14T07:53:37.458Z,132.40
2018-12-14T07:55:44.701Z,139.23
2018-12-14T07:57:52.185Z,130.33
2018-12-14T07:59:59.138Z,135.40
2018-12-14T08:02:05.971Z,138.03
2018-12-14T08:04:13.018Z,140.67
2018-12-14T08:06:19.614Z,141.27
2018-12-14T08:08:26.210Z,146.13
2018-12-14T08:10:33.119Z,145.00
2018-12-14T08:12:40.094Z,147.23
2018-12-14T08:14:47.314Z,146.97
2018-12-14T08:16:54.202Z,148.63
2018-12-14T08:19:01.289Z,145.13
2018-12-14T08:21:08.099Z,145.57
2018-12-14T08:23:15.406Z,145.33
2018-12-14T08:25:22.206Z,148.90
2018-12-14T08:27:29.192Z,145.67
2018-12-14T08:29:35.894Z,143.67
2018-12-14T08:31:43.108Z,148.37
2018-12-14T08:33:49.789Z,151.97
2018-12-14T08:35:56.424Z,135.50
2018-12-14T08:38:03.248Z,135.60
2018-12-14T08:40:10.422Z,134.63
2018-12-14T08:42:17.338Z,129.27
2018-12-14T08:44:25.065Z,135.50
2018-12-14T08:46:31.925Z,134.20
2018-12-14T08:48:38.870Z,126.60
2018-12-14T08:50:45.821Z,147.33
2018-12-14T08:52:52.970Z,136.70
2018-12-14T08:54:59.995Z,139.23
2018-12-14T08:57:06.812Z,143.90
2018-12-14T08:59:13.766Z,145.83
2018-12-14T09:01:20.184Z,145.13
2018-12-14T09:03:27.641Z,134.17
2018-12-14T09:05:34.458Z,132.53
2018-12-14T09:07:41.554Z,121.33
2018-12-14T09:09:48.546Z,119.47
2018-12-14T09:11:55.627Z,117.17
2018-12-14T09:14:02.363Z,114.93
2018-12-14T09:16:09.600Z,108.87
2018-12-14T09:18:16.840Z,104.20
2018-12-14T09:20:23.570Z,105.90
2018-12-14T09:22:30.339Z,103.43
2018-12-14T09:24:37.263Z,110.63
2018-12-14T09:26:44.434Z,129.77
2018-12-14T09:28:51.357Z,122.77
2018-12-14T09:30:58.475Z,128.43
2018-12-14T09:33:05.329Z,126.70
2018-12-14T09:35:12.241Z,130.90
2018-12-14T09:37:19.111Z,130.93
2018-12-14T09:39:26.066Z,132.73
2018-12-14T09:41:32.826Z,136.03
2018-12-14T09:43:40.069Z,141.90
2018-12-14T09:45:46.676Z,141.47
2018-12-14T09:47:53.762Z,142.70
2018-12-14T09:50:00.767Z,144.67
2018-12-14T09:52:07.798Z,149.83
2018-12-14T09:54:14.637Z,148.33
2018-12-14T09:56:21.431Z,148.50
2018-12-14T09:58:28.122Z,147.63
2018-12-14T10:00:35.182Z,151.17
2018-12-14T10:02:41.996Z,151.20
2018-12-14T10:04:48.977Z,155.27
2018-12-14T10:06:55.778Z,154.03
2018-12-14T10:09:02.666Z,136.63
2018-12-14T10:11:10.010Z,133.03
2018-12-14T10:13:17.378Z,138.93
2018-12-14T10:15:24.338Z,141.00
2018-12-14T10:17:31.246Z,138.23
2018-12-14T10:19:38.005Z,140.37
2018-12-14T10:21:44.914Z,140.63
2018-12-14T10:23:51.589Z,147.07
2018-12-14T10:25:58.818Z,132.30
2018-12-14T10:28:05.860Z,129.03
2018-12-14T10:30:12.736Z,120.47
2018-12-14T10:32:19.507Z,116.30
2018-12-14T10:34:26.513Z,115.93
2018-12-14T10:36:33.290Z,106.63
2018-12-14T10:38:39.945Z,104.70
2018-12-14T10:40:46.844Z,106.90
2018-12-14T10:42:53.859Z,131.73
2018-12-14T10:45:00.902Z,134.93
2018-12-14T10:47:07.442Z,126.93
2018-12-14T10:49:14.505Z,131.97
2018-12-14T10:51:21.471Z,136.50
2018-12-14T10:53:28.180Z,138.10
2018-12-14T10:55:34.976Z,143.63
2018-12-14T10:57:42.021Z,144.00
2018-12-14T10:59:49.137Z,146.43
2018-12-14T11:01:57.322Z,148.90
2018-12-14T11:04:04.164Z,152.47
2018-12-14T11:06:10.998Z,158.77
2018-12-14T11:08:17.937Z,155.50
2018-12-14T11:10:24.830Z,161.47
2018-12-14T11:12:31.941Z,158.07
2018-12-14T11:14:38.647Z,163.03
2018-12-14T11:16:45.239Z,165.03
2018-12-14T11:18:52.230Z,165.17
2018-12-14T11:20:59.034Z,167.87
2018-12-14T11:23:06.177Z,170.47
2018-12-14T11:25:12.831Z,165.73
2018-12-14T11:27:19.961Z,157.23
2018-12-14T11:29:26.977Z,151.90
2018-12-14T11:31:33.899Z,148.63
2018-12-14T11:33:40.649Z,151.90
2018-12-14T11:35:47.628Z,135.47
2018-12-14T11:37:54.290Z,145.47
2018-12-14T11:40:00.496Z,140.43
2018-12-14T11:42:08.315Z,152.27
2018-12-14T11:44:20.707Z,138.63
2018-12-14T11:46:24.296Z,138.63
2018-12-14T11:48:31.143Z,121.00
2018-12-14T11:50:38.241Z,112.90
2018-12-14T11:52:45.258Z,112.10
2018-12-14T11:54:51.813Z,115.33
2018-12-14T11:56:58.881Z,109.30
2018-12-14T11:59:05.897Z,109.03
2018-12-14T12:01:12.605Z,107.87
2018-12-14T12:03:19.402Z,107.67
2018-12-14T12:05:26.490Z,103.17
2018-12-14T12:07:33.357Z,105.80
2018-12-14T12:09:40.055Z,106.13
2018-12-14T12:11:47.134Z,142.43
2018-12-14T12:13:53.809Z,143.87
2018-12-14T12:16:00.466Z,147.73
2018-12-14T12:18:07.441Z,138.37
2018-12-14T12:20:14.411Z,132.50
2018-12-14T12:22:21.682Z,136.73
2018-12-14T12:24:28.496Z,133.73
2018-12-14T12:26:35.362Z,138.17
2018-12-14T12:28:41.994Z,148.37
2018-12-14T12:30:48.805Z,149.93
2018-12-14T12:32:55.825Z,150.90
2018-12-14T12:35:03.101Z,144.80
2018-12-14T12:37:09.767Z,123.70
2018-12-14T12:39:16.654Z,120.73
2018-12-14T12:41:23.547Z,121.60
2018-12-14T12:43:30.846Z,115.97
2018-12-14T12:45:37.810Z,114.60
2018-12-14T12:47:44.824Z,114.90
2018-12-14T12:49:51.603Z,108.77
2018-12-14T12:51:58.686Z,108.30
2018-12-14T12:54:05.571Z,107.80
2018-12-14T12:56:12.765Z,106.83
2018-12-14T12:58:19.537Z,108.40
2018-12-14T13:00:26.393Z,106.20
2018-12-14T13:02:33.298Z,107.80
2018-12-14T13:04:39.917Z,106.57
2018-12-14T13:06:47.066Z,104.67
2018-12-14T13:08:53.841Z,100.80
2018-12-14T13:11:00.813Z,100.60
2018-12-14T13:13:07.474Z,102.13
2018-12-14T13:15:14.508Z,101.83
2018-12-14T13:17:22.206Z,106.57
2018-12-14T13:19:29.277Z,99.30
2018-12-14T13:21:36.059Z,92.67
2018-12-14T13:23:42.945Z,97.50
2018-12-14T13:25:49.699Z,91.80
2018-12-14T13:27:56.451Z,91.77
2018-12-14T13:30:03.533Z,93.30
2018-12-14T13:32:11.130Z,92.30
2018-12-14T13:34:17.877Z,96.17
2018-12-14T13:36:24.500Z,119.37
2018-12-14T13:38:31.671Z,105.23
2018-12-14T13:40:39.259Z,105.50
2018-12-14T13:42:46.177Z,120.47
2018-12-14T13:44:53.071Z,121.60
2018-12-14T13:47:00.137Z,120.63
2018-12-14T13:49:06.926Z,120.10
2018-12-14T13:51:14.079Z,117.73
2018-12-14T13:53:20.825Z,135.53
2018-12-14T13:55:27.630Z,137.43
2018-12-14T13:57:34.718Z,130.03
2018-12-14T13:59:41.578Z,136.83
2018-12-14T14:01:48.480Z,139.60
2018-12-14T14:03:55.347Z,139.43
2018-12-14T14:06:02.303Z,132.80
2018-12-14T14:08:09.277Z,130.93
2018-12-14T14:10:16.074Z,131.13
2018-12-14T14:12:23.249Z,108.23
2018-12-14T14:14:30.039Z,109.87
2018-12-14T14:16:36.680Z,106.77
2018-12-14T14:18:43.500Z,104.37
2018-12-14T14:20:50.456Z,102.20
2018-12-14T14:22:57.325Z,98.27
2018-12-14T14:25:04.238Z,97.00
2018-12-14T14:27:11.185Z,101.73
2018-12-14T14:29:18.033Z,95.27
2018-12-14T14:31:25.097Z,121.10
2018-12-14T14:33:32.483Z,124.67
2018-12-14T14:35:39.984Z,120.57
2018-12-14T14:37:47.116Z,112.43
2018-12-14T14:39:53.953Z,116.60
2018-12-14T14:42:00.205Z,115.03
2018-12-14T14:44:06.954Z,127.83
2018-12-14T14:46:13.603Z,131.33
2018-12-14T14:48:20.778Z,132.77
2018-12-14T14:50:27.935Z,131.93
2018-12-14T14:52:34.814Z,137.07
2018-12-14T14:54:41.547Z,133.60
2018-12-14T14:56:48.503Z,135.10
2018-12-14T14:58:55.329Z,137.50
2018-12-14T15:01:01.971Z,139.83
2018-12-14T15:03:08.909Z,143.63
2018-12-14T15:05:16.361Z,141.57
2018-12-14T15:07:23.390Z,143.20
2018-12-14T15:12:05.051Z,142.93
2018-12-14T15:14:12.164Z,144.93
2018-12-14T15:16:19.084Z,145.27
2018-12-14T15:18:25.865Z,146.47
2018-12-14T15:20:32.893Z,145.67
2018-12-14T15:22:39.950Z,144.80
2018-12-14T15:24:46.567Z,141.63
2018-12-14T15:26:53.331Z,129.20
2018-12-14T15:29:00.323Z,119.23
2018-12-14T15:31:07.218Z,116.53
2018-12-14T15:33:13.999Z,113.73
2018-12-14T15:35:20.834Z,110.97
2018-12-14T15:37:27.624Z,105.87
2018-12-14T15:39:35.100Z,117.77
2018-12-14T15:41:41.986Z,116.70
2018-12-14T15:43:48.981Z,112.03
2018-12-14T15:45:56.038Z,118.87
2018-12-14T15:48:03.223Z,126.73
2018-12-14T15:50:10.712Z,127.97
2018-12-14T15:52:17.443Z,135.20
2018-12-14T15:54:24.630Z,134.67
2018-12-14T15:56:31.535Z,134.93
2018-12-14T15:58:38.529Z,135.17
2018-12-14T16:00:45.216Z,136.00
2018-12-14T16:02:52.086Z,130.83
2018-12-14T16:04:58.854Z,136.70
2018-12-14T16:07:05.362Z,140.23
2018-12-14T16:09:12.328Z,140.90
2018-12-14T16:11:19.387Z,142.93
2018-12-14T16:13:26.283Z,143.57
2018-12-14T16:15:33.304Z,144.30
2018-12-14T16:17:40.355Z,146.67
2018-12-14T16:19:47.178Z,150.80
2018-12-14T16:21:54.191Z,149.57
2018-12-14T16:24:01.170Z,152.83
2018-12-14T16:26:07.846Z,152.03
2018-12-14T16:28:14.772Z,155.13
2018-12-14T16:30:22.202Z,155.37
2018-12-14T16:32:28.846Z,154.80
2018-12-14T16:34:36.062Z,156.30
2018-12-14T16:36:43.262Z,159.00
2018-12-14T16:38:50.363Z,163.80
2018-12-14T16:40:57.326Z,161.00
2018-12-14T16:43:04.566Z,160.67
2018-12-14T16:45:11.522Z,158.93
2018-12-14T16:47:18.632Z,161.63
2018-12-14T16:49:25.538Z,149.47
2018-12-14T16:51:32.484Z,137.60
2018-12-14T16:53:44.006Z,132.43
2018-12-14T16:55:51.672Z,126.17
2018-12-14T16:57:58.598Z,121.57
2018-12-14T17:00:05.767Z,123.37
2018-12-14T17:02:12.515Z,132.27
2018-12-14T17:04:19.461Z,122.03
2018-12-14T17:06:26.166Z,119.03
2018-12-14T17:08:33.272Z,132.00
2018-12-14T17:10:40.090Z,131.63
2018-12-14T17:12:47.191Z,139.20
2018-12-14T17:14:53.718Z,138.53
2018-12-14T17:17:00.494Z,138.13
2018-12-14T17:19:07.335Z,142.47
2018-12-14T17:21:14.224Z,144.87
2018-12-14T17:23:20.946Z,143.40
2018-12-14T17:25:28.058Z,146.40
2018-12-14T17:27:35.028Z,147.73
2018-12-14T17:29:42.314Z,146.40
2018-12-14T17:31:49.470Z,154.47
2018-12-14T17:33:56.341Z,150.13
2018-12-14T17:36:03.063Z,147.07
2018-12-14T17:38:09.959Z,150.10
2018-12-14T17:40:17.082Z,146.97
2018-12-14T17:42:24.016Z,147.00
2018-12-14T17:44:31.276Z,145.13
2018-12-14T17:46:38.177Z,149.83
2018-12-14T17:48:45.310Z,152.30
2018-12-14T17:50:52.167Z,148.77
2018-12-14T17:52:58.819Z,150.10
2018-12-14T17:55:05.979Z,152.17
2018-12-14T17:57:12.642Z,158.00
2018-12-14T17:59:19.590Z,156.33
2018-12-14T18:01:26.667Z,159.20
2018-12-14T18:03:33.517Z,159.77
2018-12-14T18:05:40.217Z,167.13
2018-12-14T18:07:47.281Z,170.27
2018-12-14T18:09:53.985Z,167.00
2018-12-14T18:12:01.129Z,165.23
2018-12-14T18:14:08.045Z,164.83
2018-12-14T18:16:14.944Z,165.77
2018-12-14T18:18:21.582Z,169.20
2018-12-14T18:20:28.942Z,170.80
2018-12-14T18:22:36.347Z,169.43
2018-12-14T18:24:43.308Z,167.00
2018-12-14T18:26:50.133Z,164.83
2018-12-14T18:28:56.970Z,154.03
2018-12-14T18:31:03.722Z,152.57
2018-12-14T18:33:10.425Z,143.10
2018-12-14T18:35:17.652Z,135.67
2018-12-14T18:37:24.331Z,128.00
2018-12-14T18:39:31.082Z,129.37
2018-12-14T18:41:38.215Z,121.10
2018-12-14T18:43:44.941Z,119.77
2018-12-14T18:45:53.409Z,114.57
2018-12-14T18:48:00.923Z,116.17
2018-12-14T18:50:08.995Z,126.07
2018-12-14T18:52:15.815Z,135.57
2018-12-14T18:54:22.868Z,141.57
2018-12-14T18:56:29.909Z,141.00
2018-12-14T18:58:36.734Z,138.53
2018-12-14T19:00:43.519Z,142.20
2018-12-14T19:02:50.434Z,144.63
2018-12-14T19:04:57.197Z,144.37
2018-12-14T19:07:03.858Z,141.97
2018-12-14T19:09:11.061Z,140.63
2018-12-14T19:11:17.974Z,139.07
2018-12-14T19:13:24.910Z,134.30
2018-12-14T19:15:31.714Z,138.93
2018-12-14T19:17:39.032Z,143.80
2018-12-14T19:19:45.750Z,146.93
2018-12-14T19:21:52.622Z,150.00
2018-12-14T19:23:59.262Z,143.93
2018-12-14T19:26:05.991Z,148.97
2018-12-14T19:28:12.794Z,151.73
2018-12-14T19:30:19.078Z,157.63
2018-12-14T19:32:25.949Z,155.57
2018-12-14T19:34:32.695Z,160.63
2018-12-14T19:36:39.533Z,163.13
2018-12-14T19:38:46.665Z,163.20
2018-12-14T19:40:53.701Z,168.00
2018-12-14T19:43:00.724Z,164.47
2018-12-14T19:45:07.972Z,171.10
2018-12-14T19:47:14.954Z,168.13
2018-12-14T19:49:21.792Z,169.63
2018-12-14T19:51:28.882Z,161.87
2018-12-14T19:53:35.822Z,167.87
2018-12-14T19:55:42.833Z,168.53
2018-12-14T19:57:49.543Z,168.87
2018-12-14T19:59:56.475Z,171.97
2018-12-14T20:02:03.524Z,177.03
2018-12-14T20:04:10.358Z,175.77
2018-12-14T20:06:17.302Z,174.90
2018-12-14T20:08:24.021Z,173.87
2018-12-14T20:10:30.862Z,174.33
2018-12-14T20:12:37.933Z,177.67
2018-12-14T20:14:44.787Z,168.53
2018-12-14T20:16:51.421Z,147.57
2018-12-14T20:18:58.417Z,142.37
2018-12-14T20:21:05.144Z,137.73
2018-12-14T20:23:11.914Z,134.03
2018-12-14T20:25:18.953Z,129.97
2018-12-14T20:27:25.622Z,127.60
2018-12-14T20:29:32.374Z,131.70
2018-12-14T20:31:39.376Z,145.90
2018-12-14T20:33:46.999Z,150.17
2018-12-14T20:35:53.800Z,141.87
2018-12-14T20:38:00.589Z,145.00
2018-12-14T20:40:07.650Z,153.63
2018-12-14T20:42:14.411Z,156.97
2018-12-14T20:44:21.077Z,158.30
2018-12-14T20:46:27.928Z,159.63
2018-12-14T20:48:34.946Z,165.03
2018-12-14T20:50:42.113Z,167.27
2018-12-14T20:52:49.110Z,163.93
2018-12-14T20:54:56.049Z,166.97
2018-12-14T20:57:02.873Z,173.17
2018-12-14T20:59:09.753Z,177.07
2018-12-14T21:01:16.507Z,174.60
2018-12-14T21:03:23.215Z,178.63
2018-12-14T21:05:30.372Z,178.50
2018-12-14T21:07:37.281Z,182.23
2018-12-14T21:09:44.441Z,181.00
2018-12-14T21:11:51.203Z,181.37
2018-12-14T21:13:58.004Z,182.37
2018-12-14T21:16:04.742Z,186.77
2018-12-14T21:18:11.526Z,186.50
2018-12-14T21:20:18.308Z,183.17
2018-12-14T21:22:25.057Z,184.47
2018-12-14T21:24:31.805Z,169.17
2018-12-14T21:26:38.762Z,158.00
2018-12-14T21:28:45.610Z,151.77
2018-12-14T21:30:52.483Z,143.63
2018-12-14T21:32:59.306Z,140.73
2018-12-14T21:35:06.245Z,134.97
2018-12-14T21:37:13.070Z,136.00
2018-12-14T21:39:20.062Z,158.40
2018-12-14T21:41:26.979Z,155.33
2018-12-14T21:43:33.760Z,138.80
2018-12-14T21:45:40.754Z,145.50
2018-12-14T21:47:47.872Z,155.47
2018-12-14T21:49:54.667Z,159.77
2018-12-14T21:52:01.509Z,164.53
2018-12-14T21:54:08.305Z,168.70
2018-12-14T21:56:15.387Z,168.83
2018-12-14T21:58:22.624Z,176.70
2018-12-14T22:00:29.498Z,177.23
2018-12-14T22:02:36.565Z,176.77
2018-12-14T22:04:43.358Z,174.13
2018-12-14T22:06:50.032Z,173.80
2018-12-14T22:08:56.830Z,176.77
2018-12-14T22:11:03.683Z,177.70
2018-12-14T22:13:10.670Z,178.53
2018-12-14T22:15:17.688Z,175.20
2018-12-14T22:17:24.563Z,174.43
2018-12-14T22:19:34.497Z,178.00
2018-12-14T22:21:41.334Z,181.90
2018-12-14T22:23:48.073Z,180.93
2018-12-14T22:25:55.010Z,183.17
2018-12-14T22:28:01.923Z,187.40
2018-12-14T22:30:09.075Z,187.73
2018-12-14T22:32:16.068Z,187.43
2018-12-14T22:34:22.718Z,189.23
2018-12-14T22:36:29.697Z,181.77
2018-12-14T22:38:36.713Z,188.40
2018-12-14T22:40:43.750Z,191.03
2018-12-14T22:42:50.632Z,196.87
2018-12-14T22:44:57.327Z,192.37
2018-12-14T22:47:04.023Z,191.60
2018-12-14T22:49:10.946Z,191.73
2018-12-14T22:51:17.954Z,178.40
2018-12-14T22:53:24.937Z,157.70
2018-12-14T22:55:31.868Z,151.53
2018-12-14T22:57:38.904Z,142.43
2018-12-14T22:59:45.672Z,135.67
2018-12-14T23:01:52.704Z,129.77
2018-12-14T23:03:59.599Z,127.07
2018-12-14T23:06:06.568Z,121.33
2018-12-14T23:08:13.510Z,116.80
2018-12-14T23:10:20.273Z,115.93
2018-12-14T23:12:27.286Z,109.97
2018-12-14T23:14:34.758Z,116.90
2018-12-14T23:16:41.859Z,111.10
2018-12-14T23:18:48.561Z,110.13
2018-12-14T23:20:55.212Z,129.83
2018-12-14T23:23:02.091Z,119.00
2018-12-14T23:25:08.820Z,122.80
2018-12-14T23:27:15.641Z,128.83
2018-12-14T23:29:22.702Z,128.23
2018-12-14T23:31:29.693Z,140.03
2018-12-14T23:33:36.757Z,138.80
2018-12-14T23:35:43.629Z,146.37
2018-12-14T23:37:50.406Z,142.17
2018-12-14T23:39:57.330Z,153.30
2018-12-14T23:42:04.484Z,155.10
2018-12-14T23:44:11.598Z,157.33
2018-12-14T23:46:18.721Z,152.10
2018-12-14T23:48:25.717Z,151.60
2018-12-14T23:50:32.589Z,157.43
2018-12-14T23:52:39.386Z,162.17
2018-12-14T23:54:46.110Z,153.97
2018-12-14T23:56:52.803Z,156.10
2018-12-14T23:58:59.989Z,156.70
